createdAt,value
2018-09-02T00:00:32.207Z,12.10
2018-09-02T00:03:00.784Z,11.30
2018-09-02T00:05:28.918Z,10.23
2018-09-02T00:07:57.210Z,9.67
2018-09-02T00:10:25.343Z,14.27
2018-09-02T00:12:53.411Z,9.70
2018-09-02T00:15:21.561Z,10.70
2018-09-02T00:17:49.755Z,13.33
2018-09-02T00:20:17.771Z,11.07
2018-09-02T00:22:45.801Z,11.50
2018-09-02T00:25:13.844Z,11.03
2018-09-02T00:27:41.914Z,11.57
2018-09-02T00:30:09.993Z,11.43
2018-09-02T00:32:38.180Z,9.60
2018-09-02T00:35:06.441Z,10.60
2018-09-02T00:37:34.480Z,11.80
2018-09-02T00:40:02.483Z,9.53
2018-09-02T00:42:30.523Z,11.30
2018-09-02T00:44:58.540Z,9.23
2018-09-02T00:47:26.543Z,9.43
2018-09-02T00:49:54.571Z,9.83
2018-09-02T00:52:22.588Z,10.20
2018-09-02T00:54:50.610Z,12.13
2018-09-02T00:57:18.635Z,9.43
2018-09-02T00:59:46.652Z,11.37
2018-09-02T01:02:14.684Z,9.47
2018-09-02T01:04:42.718Z,9.87
2018-09-02T01:07:10.743Z,10.97
2018-09-02T01:09:38.772Z,12.17
2018-09-02T01:12:06.782Z,11.43
2018-09-02T01:14:34.907Z,11.60
2018-09-02T01:17:03.106Z,11.57
2018-09-02T01:19:31.151Z,12.17
2018-09-02T01:21:59.191Z,10.10
2018-09-02T01:24:27.215Z,10.23
2018-09-02T01:26:55.230Z,12.57
2018-09-02T01:29:23.279Z,10.73
2018-09-02T01:31:51.320Z,11.17
2018-09-02T01:34:19.357Z,13.33
2018-09-02T01:36:47.400Z,10.63
2018-09-02T01:39:15.432Z,11.43
2018-09-02T01:41:43.470Z,11.70
2018-09-02T01:44:11.511Z,12.67
2018-09-02T01:46:39.534Z,13.00
2018-09-02T01:49:07.555Z,12.40
2018-09-02T01:51:35.596Z,11.93
2018-09-02T01:54:03.623Z,12.20
2018-09-02T01:56:31.638Z,11.20
2018-09-02T01:58:59.699Z,10.60
2018-09-02T02:01:27.730Z,12.67
2018-09-02T02:03:55.752Z,11.10
2018-09-02T02:06:23.914Z,10.17
2018-09-02T02:08:51.937Z,10.00
2018-09-02T02:11:19.966Z,12.13
2018-09-02T02:13:48.004Z,13.70
2018-09-02T02:16:16.033Z,10.30
2018-09-02T02:18:44.059Z,10.93
2018-09-02T02:21:12.071Z,13.83
2018-09-02T02:23:40.107Z,12.07
2018-09-02T02:26:08.128Z,10.67
2018-09-02T02:28:36.167Z,13.00
2018-09-02T02:31:04.410Z,10.97
2018-09-02T02:33:32.508Z,13.90
2018-09-02T02:36:00.543Z,12.17
2018-09-02T02:38:28.559Z,11.80
2018-09-02T02:40:56.580Z,12.43
2018-09-02T02:43:24.606Z,10.93
2018-09-02T02:45:52.634Z,9.87
2018-09-02T02:48:20.634Z,10.50
2018-09-02T02:50:48.655Z,8.90
2018-09-02T02:53:16.673Z,11.37
2018-09-02T02:55:44.701Z,9.60
2018-09-02T02:58:12.715Z,9.87
2018-09-02T03:00:40.728Z,9.87
2018-09-02T03:03:08.770Z,11.67
2018-09-02T03:05:36.802Z,11.77
2018-09-02T03:08:04.996Z,12.03
2018-09-02T03:10:33.004Z,9.23
2018-09-02T03:13:01.014Z,11.03
2018-09-02T03:15:29.029Z,9.83
2018-09-02T03:17:57.064Z,9.77
2018-09-02T03:20:25.076Z,11.93
2018-09-02T03:22:53.111Z,11.20
2018-09-02T03:25:21.175Z,11.73
2018-09-02T03:27:49.177Z,9.23
2018-09-02T03:30:17.203Z,13.83
2018-09-02T03:32:45.264Z,9.60
2018-09-02T03:35:13.371Z,10.43
2018-09-02T03:37:41.376Z,11.57
2018-09-02T03:40:09.394Z,9.47
2018-09-02T03:42:37.418Z,12.53
2018-09-02T03:45:05.499Z,10.53
2018-09-02T03:47:33.519Z,13.07
2018-09-02T03:50:01.595Z,10.80
2018-09-02T03:52:29.611Z,10.93
2018-09-02T03:54:57.634Z,12.33
2018-09-02T03:57:25.663Z,9.80
2018-09-02T03:59:53.680Z,9.10
2018-09-02T04:02:21.705Z,11.57
2018-09-02T04:04:49.740Z,13.40
2018-09-02T04:07:17.759Z,11.30
2018-09-02T04:09:45.776Z,11.37
2018-09-02T04:12:13.786Z,11.67
2018-09-02T04:14:41.852Z,12.97
2018-09-02T04:17:09.871Z,11.30
2018-09-02T04:19:37.892Z,11.63
2018-09-02T04:22:05.932Z,9.63
2018-09-02T04:24:33.976Z,11.07
2018-09-02T04:27:02.035Z,10.17
2018-09-02T04:29:30.057Z,9.53
2018-09-02T04:31:58.087Z,10.07
2018-09-02T04:34:26.111Z,9.43
2018-09-02T04:36:54.157Z,12.53
2018-09-02T04:39:22.197Z,11.60
2018-09-02T04:41:50.219Z,11.20
2018-09-02T04:44:18.246Z,13.63
2018-09-02T04:46:46.319Z,11.97
2018-09-02T04:49:14.354Z,12.73
2018-09-02T04:51:42.366Z,10.80
2018-09-02T04:54:10.471Z,12.70
2018-09-02T04:56:38.442Z,10.67
2018-09-02T04:59:06.495Z,11.03
2018-09-02T05:01:34.531Z,11.10
2018-09-02T05:04:02.668Z,10.97
2018-09-02T05:06:30.703Z,16.23
2018-09-02T05:08:58.740Z,13.13
2018-09-02T05:11:26.762Z,11.53
2018-09-02T05:13:54.801Z,11.83
2018-09-02T05:16:22.816Z,14.03
2018-09-02T05:18:50.857Z,11.60
2018-09-02T05:21:18.919Z,13.37
2018-09-02T05:23:46.931Z,13.50
2018-09-02T05:26:14.963Z,13.67
2018-09-02T05:28:43.001Z,16.00
2018-09-02T05:31:11.010Z,14.93
2018-09-02T05:33:39.039Z,12.00
2018-09-02T05:36:07.071Z,12.20
2018-09-02T05:38:35.092Z,14.40
2018-09-02T05:41:03.146Z,14.43
2018-09-02T05:43:31.171Z,12.40
2018-09-02T05:45:59.179Z,12.03
2018-09-02T05:48:27.206Z,12.60
2018-09-02T05:50:55.231Z,13.33
2018-09-02T05:53:23.267Z,13.63
2018-09-02T05:55:51.306Z,12.53
2018-09-02T05:58:19.324Z,13.17
2018-09-02T06:00:47.360Z,12.07
2018-09-02T06:03:15.370Z,17.77
2018-09-02T06:05:43.448Z,13.93
2018-09-02T06:08:11.492Z,14.33
2018-09-02T06:10:39.524Z,12.63
2018-09-02T06:13:07.540Z,13.10
2018-09-02T06:15:35.572Z,13.53
2018-09-02T06:18:03.602Z,12.33
2018-09-02T06:20:31.656Z,10.97
2018-09-02T06:22:59.699Z,13.60
2018-09-02T06:25:27.729Z,11.60
2018-09-02T06:27:55.765Z,12.17
2018-09-02T06:30:23.888Z,11.57
2018-09-02T06:32:51.986Z,11.23
2018-09-02T06:35:19.958Z,14.03
2018-09-02T06:37:48.011Z,12.17
2018-09-02T06:40:16.034Z,13.17
2018-09-02T06:42:44.060Z,12.23
2018-09-02T06:45:12.087Z,11.70
2018-09-02T06:47:40.138Z,11.40
2018-09-02T06:50:08.178Z,11.27
2018-09-02T06:52:36.236Z,11.30
2018-09-02T06:55:04.267Z,12.53
2018-09-02T06:57:32.322Z,9.80
2018-09-02T07:00:00.415Z,11.53
2018-09-02T07:02:28.434Z,12.47
2018-09-02T07:04:56.511Z,11.87
2018-09-02T07:07:24.621Z,14.03
2018-09-02T07:09:52.617Z,10.73
2018-09-02T07:12:20.854Z,12.70
2018-09-02T07:14:48.931Z,14.07
2018-09-02T07:17:16.955Z,10.10
2018-09-02T07:19:44.996Z,11.17
2018-09-02T07:22:13.011Z,12.77
2018-09-02T07:24:41.047Z,11.73
2018-09-02T07:27:09.087Z,11.77
2018-09-02T07:29:37.110Z,10.80
2018-09-02T07:32:05.183Z,13.73
2018-09-02T07:34:33.288Z,10.93
2018-09-02T07:37:01.295Z,13.90
2018-09-02T07:39:29.352Z,13.33
2018-09-02T07:41:57.378Z,11.23
2018-09-02T07:44:25.418Z,12.13
2018-09-02T07:46:53.444Z,13.53
2018-09-02T07:49:21.858Z,10.93
2018-09-02T07:51:49.877Z,11.83
2018-09-02T07:54:17.898Z,13.07
2018-09-02T07:56:45.929Z,12.97
2018-09-02T07:59:13.940Z,13.40
2018-09-02T08:01:42.062Z,12.63
2018-09-02T08:04:10.099Z,11.53
2018-09-02T08:06:38.124Z,13.50
2018-09-02T08:09:06.969Z,10.13
2018-09-02T08:11:35.013Z,9.43
2018-09-02T08:14:03.046Z,10.80
2018-09-02T08:16:31.071Z,12.77
2018-09-02T08:18:59.095Z,11.13
2018-09-02T08:21:27.114Z,12.63
2018-09-02T08:23:55.146Z,10.53
2018-09-02T08:26:23.198Z,14.53
2018-09-02T08:28:51.244Z,12.83
2018-09-02T08:31:19.329Z,13.23
2018-09-02T08:33:47.369Z,12.47
2018-09-02T08:36:15.693Z,13.53
2018-09-02T08:38:43.758Z,11.63
2018-09-02T08:41:11.813Z,12.87
2018-09-02T08:43:39.936Z,10.97
2018-09-02T08:46:08.084Z,11.80
2018-09-02T08:48:36.129Z,13.87
2018-09-02T08:51:04.144Z,9.93
2018-09-02T08:53:32.191Z,10.40
2018-09-02T08:56:00.273Z,10.53
2018-09-02T08:58:30.780Z,11.57
2018-09-02T09:00:58.908Z,8.90
2018-09-02T09:03:26.959Z,9.33
2018-09-02T09:05:55.008Z,10.77
2018-09-02T09:08:23.264Z,11.20
2018-09-02T09:10:51.714Z,11.63
2018-09-02T09:13:19.751Z,10.70
2018-09-02T09:15:47.811Z,10.00
2018-09-02T09:18:15.869Z,10.40
2018-09-02T09:20:43.918Z,12.13
2018-09-02T09:23:12.060Z,9.50
2018-09-02T09:25:40.118Z,9.13
2018-09-02T09:28:08.194Z,8.50
2018-09-02T09:30:36.247Z,10.07
2018-09-02T09:33:04.299Z,9.10
2018-09-02T09:35:32.345Z,9.87
2018-09-02T09:38:00.458Z,8.20
2018-09-02T09:40:28.492Z,9.33
2018-09-02T09:42:56.529Z,7.70
2018-09-02T09:45:24.556Z,9.93
2018-09-02T09:47:52.584Z,7.80
2018-09-02T09:50:20.646Z,9.83
2018-09-02T09:52:48.738Z,10.70
2018-09-02T09:55:16.824Z,8.57
2018-09-02T09:57:44.902Z,12.23
2018-09-02T10:00:15.140Z,10.77
2018-09-02T10:02:43.177Z,9.40
2018-09-02T10:05:11.249Z,8.53
2018-09-02T10:07:39.551Z,10.27
2018-09-02T10:10:07.922Z,8.53
2018-09-02T10:12:36.257Z,10.93
2018-09-02T10:15:04.584Z,9.20
2018-09-02T10:17:32.911Z,11.27
2018-09-02T10:20:01.235Z,10.50
2018-09-02T10:22:29.576Z,10.57
2018-09-02T10:24:57.872Z,9.67
2018-09-02T10:27:26.342Z,9.67
2018-09-02T10:29:54.636Z,8.60
2018-09-02T10:32:22.934Z,7.53
2018-09-02T10:34:51.282Z,9.87
2018-09-02T10:37:19.584Z,9.30
2018-09-02T10:39:47.912Z,9.87
2018-09-02T10:42:16.281Z,10.70
2018-09-02T10:44:44.596Z,8.83
2018-09-02T10:47:12.936Z,9.10
2018-09-02T10:49:41.278Z,8.67
2018-09-02T10:52:09.576Z,9.07
2018-09-02T10:54:37.885Z,7.93
2018-09-02T10:57:06.218Z,10.60
2018-09-02T10:59:34.608Z,10.10
2018-09-02T11:02:02.999Z,7.97
2018-09-02T11:04:31.320Z,9.93
2018-09-02T11:06:59.625Z,8.83
2018-09-02T11:09:27.930Z,8.07
2018-09-02T11:11:56.281Z,8.47
2018-09-02T11:14:24.589Z,9.83
2018-09-02T11:16:52.904Z,8.00
2018-09-02T11:19:21.260Z,8.93
2018-09-02T11:21:49.560Z,9.40
2018-09-02T11:24:17.859Z,9.03
2018-09-02T11:26:46.143Z,7.97
2018-09-02T11:29:14.499Z,8.83
2018-09-02T11:31:42.799Z,8.90
2018-09-02T11:34:11.195Z,9.93
2018-09-02T11:36:39.436Z,8.70
2018-09-02T11:39:08.460Z,6.67
2018-09-02T11:41:36.772Z,8.10
2018-09-02T11:44:05.072Z,6.93
2018-09-02T11:46:33.387Z,7.57
2018-09-02T11:49:01.677Z,7.10
2018-09-02T11:51:29.975Z,8.47
2018-09-02T11:53:58.302Z,11.80
2018-09-02T11:56:26.607Z,6.80
2018-09-02T11:58:54.931Z,9.17
2018-09-02T12:01:23.411Z,10.47
2018-09-02T12:03:51.757Z,9.33
2018-09-02T12:06:20.083Z,6.30
2018-09-02T12:08:48.358Z,6.77
2018-09-02T12:11:16.700Z,5.80
2018-09-02T12:13:45.026Z,7.53
2018-09-02T12:16:13.349Z,6.13
2018-09-02T12:18:41.671Z,6.97
2018-09-02T12:21:09.971Z,6.23
2018-09-02T12:23:38.325Z,9.07
2018-09-02T12:26:06.649Z,7.97
2018-09-02T12:28:35.233Z,5.70
2018-09-02T12:31:03.561Z,7.07
2018-09-02T12:33:31.874Z,6.97
2018-09-02T12:36:00.229Z,4.77
2018-09-02T12:38:28.535Z,7.10
2018-09-02T12:40:56.839Z,7.20
2018-09-02T12:43:25.134Z,4.53
2018-09-02T12:45:53.472Z,3.90
2018-09-02T12:48:21.852Z,4.90
2018-09-02T12:50:50.089Z,6.53
2018-09-02T12:53:18.404Z,5.63
2018-09-02T12:55:46.709Z,5.27
2018-09-02T12:58:15.007Z,6.07
2018-09-02T13:00:43.339Z,11.13
2018-09-02T13:03:11.642Z,5.80
2018-09-02T13:06:42.622Z,5.57
2018-09-02T13:09:10.929Z,5.23
2018-09-02T13:11:39.258Z,6.27
2018-09-02T13:16:33.876Z,4.43
2018-09-02T13:19:02.329Z,6.93
2018-09-02T13:21:30.534Z,4.70
2018-09-02T13:23:58.929Z,7.10
2018-09-02T13:26:27.469Z,4.60
2018-09-02T13:28:55.783Z,4.80
2018-09-02T13:31:24.530Z,4.97
2018-09-02T13:33:52.937Z,6.00
2018-09-02T13:36:21.230Z,5.30
2018-09-02T13:38:49.549Z,4.17
2018-09-02T13:41:17.899Z,6.07
2018-09-02T13:43:46.208Z,4.07
2018-09-02T13:46:14.530Z,5.80
2018-09-02T13:48:42.863Z,5.13
2018-09-02T13:51:11.211Z,4.07
2018-09-02T13:53:39.587Z,5.00
2018-09-02T13:56:07.895Z,3.67
2018-09-02T13:58:36.437Z,5.00
2018-09-02T14:01:04.799Z,4.37
2018-09-02T14:03:33.900Z,5.23
2018-09-02T14:06:02.248Z,6.00
2018-09-02T14:08:30.545Z,5.27
2018-09-02T14:10:58.862Z,3.50
2018-09-02T14:13:27.175Z,3.97
2018-09-02T14:15:55.499Z,5.10
2018-09-02T14:18:23.817Z,3.60
2018-09-02T14:20:52.476Z,4.93
2018-09-02T14:23:20.946Z,3.53
2018-09-02T14:25:49.273Z,4.67
2018-09-02T14:28:17.891Z,3.23
2018-09-02T14:30:46.300Z,4.50
2018-09-02T14:33:14.600Z,3.40
2018-09-02T14:35:42.994Z,4.00
2018-09-02T14:38:11.284Z,4.57
2018-09-02T14:40:39.603Z,4.87
2018-09-02T14:43:07.961Z,4.90
2018-09-02T14:45:36.484Z,5.80
2018-09-02T14:48:04.809Z,5.40
2018-09-02T14:50:33.123Z,3.17
2018-09-02T14:53:01.459Z,6.13
2018-09-02T14:55:29.754Z,4.63
2018-09-02T14:57:58.187Z,3.37
2018-09-02T15:00:26.507Z,5.90
2018-09-02T15:02:54.929Z,4.67
2018-09-02T15:05:23.255Z,4.90
2018-09-02T15:07:51.571Z,5.23
2018-09-02T15:10:19.877Z,3.50
2018-09-02T15:12:48.182Z,3.37
2018-09-02T15:15:16.496Z,3.23
2018-09-02T15:17:44.793Z,8.67
2018-09-02T15:20:13.107Z,3.87
2018-09-02T15:22:41.404Z,4.23
2018-09-02T15:25:09.714Z,3.40
2018-09-02T15:27:38.033Z,3.90
2018-09-02T15:30:07.093Z,5.33
2018-09-02T15:32:35.417Z,5.07
2018-09-02T15:35:03.765Z,5.20
2018-09-02T15:37:32.122Z,5.57
2018-09-02T15:40:00.419Z,5.63
2018-09-02T15:42:28.744Z,9.40
2018-09-02T15:44:57.116Z,8.80
2018-09-02T15:47:25.420Z,5.80
2018-09-02T15:49:53.741Z,4.50
2018-09-02T15:52:22.057Z,3.30
2018-09-02T15:54:50.379Z,6.57
2018-09-02T15:57:18.802Z,6.17
2018-09-02T15:59:47.087Z,5.17
2018-09-02T16:02:15.715Z,5.00
2018-09-02T16:04:44.078Z,7.57
2018-09-02T16:07:12.395Z,5.97
2018-09-02T16:09:40.710Z,5.63
2018-09-02T16:12:09.319Z,4.23
2018-09-02T16:14:37.646Z,6.53
2018-09-02T16:17:05.972Z,4.50
2018-09-02T16:19:34.281Z,4.30
2018-09-02T16:22:02.583Z,5.80
2018-09-02T16:24:30.911Z,12.23
2018-09-02T16:26:59.249Z,7.23
2018-09-02T16:29:27.618Z,5.93
2018-09-02T16:31:55.972Z,4.37
2018-09-02T16:34:24.413Z,5.87
2018-09-02T16:36:52.736Z,5.33
2018-09-02T16:39:21.113Z,4.17
2018-09-02T16:41:49.417Z,4.37
2018-09-02T16:44:17.764Z,4.03
2018-09-02T16:46:46.180Z,5.43
2018-09-02T16:49:14.512Z,3.70
2018-09-02T16:51:42.913Z,7.10
2018-09-02T16:54:11.551Z,6.77
2018-09-02T16:56:39.863Z,4.83
2018-09-02T16:59:08.164Z,3.70
2018-09-02T17:01:36.451Z,4.03
2018-09-02T17:04:06.818Z,4.47
2018-09-02T17:06:35.184Z,4.53
2018-09-02T17:09:03.659Z,3.20
2018-09-02T17:11:32.031Z,4.83
2018-09-02T17:14:00.384Z,4.73
2018-09-02T17:16:28.735Z,5.67
2018-09-02T17:19:00.718Z,7.73
2018-09-02T17:21:29.018Z,6.23
2018-09-02T17:23:57.337Z,4.73
2018-09-02T17:26:25.645Z,6.80
2018-09-02T17:28:53.951Z,5.73
2018-09-02T17:31:22.316Z,5.00
2018-09-02T17:33:50.626Z,6.17
2018-09-02T17:36:18.943Z,4.53
2018-09-02T17:38:47.360Z,6.30
2018-09-02T17:41:15.757Z,4.30
2018-09-02T17:43:44.079Z,5.67
2018-09-02T17:46:12.395Z,6.23
2018-09-02T17:48:40.693Z,7.03
2018-09-02T17:51:09.000Z,8.27
2018-09-02T17:53:37.318Z,5.80
2018-09-02T17:56:05.667Z,4.07
2018-09-02T17:58:33.996Z,4.30
2018-09-02T18:01:02.372Z,5.37
2018-09-02T18:03:30.716Z,7.53
2018-09-02T18:05:59.064Z,5.23
2018-09-02T18:08:27.457Z,6.13
2018-09-02T18:10:55.808Z,5.77
2018-09-02T18:13:24.130Z,6.00
2018-09-02T18:15:52.539Z,5.60
2018-09-02T18:18:20.841Z,6.90
2018-09-02T18:20:49.287Z,6.50
2018-09-02T18:23:17.777Z,4.63
2018-09-02T18:25:46.220Z,6.13
2018-09-02T18:28:17.606Z,4.20
2018-09-02T18:30:45.761Z,5.03
2018-09-02T18:33:13.791Z,6.13
2018-09-02T18:35:41.918Z,5.10
2018-09-02T18:38:09.966Z,5.63
2018-09-02T18:40:38.504Z,5.00
2018-09-02T18:43:06.877Z,7.17
2018-09-02T18:45:35.079Z,5.83
2018-09-02T18:48:03.133Z,9.37
2018-09-02T18:50:31.597Z,6.57
2018-09-02T18:53:00.180Z,5.57
2018-09-02T18:55:28.974Z,5.70
2018-09-02T18:57:57.450Z,4.37
2018-09-02T19:00:25.592Z,6.00
2018-09-02T19:02:53.810Z,6.37
2018-09-02T19:05:22.175Z,8.43
2018-09-02T19:07:50.759Z,7.10
2018-09-02T19:10:19.118Z,5.07
2018-09-02T19:12:47.171Z,5.17
2018-09-02T19:15:15.260Z,5.83
2018-09-02T19:17:43.662Z,5.03
2018-09-02T19:20:11.717Z,5.00
2018-09-02T19:22:39.878Z,4.97
2018-09-02T19:25:08.389Z,6.53
2018-09-02T19:27:36.540Z,5.53
2018-09-02T19:30:05.059Z,6.63
2018-09-02T19:32:33.280Z,5.17
2018-09-02T19:35:01.395Z,5.53
2018-09-02T19:37:29.825Z,7.37
2018-09-02T19:39:58.264Z,5.30
2018-09-02T19:42:26.536Z,8.27
2018-09-02T19:44:54.917Z,6.07
2018-09-02T19:47:23.142Z,7.57
2018-09-02T19:49:51.311Z,6.90
2018-09-02T19:52:19.395Z,5.87
2018-09-02T19:54:47.564Z,8.57
2018-09-02T19:57:15.729Z,9.10
2018-09-02T19:59:43.808Z,7.97
2018-09-02T20:02:11.965Z,8.87
2018-09-02T20:04:40.013Z,8.70
2018-09-02T20:07:08.242Z,9.93
2018-09-02T20:09:36.460Z,6.77
2018-09-02T20:12:04.516Z,6.27
2018-09-02T20:14:32.593Z,7.07
2018-09-02T20:17:01.139Z,6.77
2018-09-02T20:19:29.321Z,8.40
2018-09-02T20:21:57.522Z,8.37
2018-09-02T20:24:25.644Z,6.70
2018-09-02T20:26:53.697Z,7.30
2018-09-02T20:29:21.791Z,6.90
2018-09-02T20:31:49.863Z,6.57
2018-09-02T20:34:17.929Z,7.00
2018-09-02T20:36:45.968Z,8.23
2018-09-02T20:39:14.091Z,8.97
2018-09-02T20:41:42.135Z,6.60
2018-09-02T20:44:10.172Z,8.30
2018-09-02T20:46:38.219Z,8.73
2018-09-02T20:49:06.296Z,7.37
2018-09-02T20:51:34.339Z,10.10
2018-09-02T20:54:02.404Z,8.77
2018-09-02T20:56:30.453Z,9.13
2018-09-02T20:58:58.536Z,7.87
2018-09-02T21:01:26.648Z,8.10
2018-09-02T21:03:54.809Z,9.07
2018-09-02T21:06:22.914Z,8.17
2018-09-02T21:08:50.934Z,7.67
2018-09-02T21:11:19.010Z,8.80
2018-09-02T21:13:47.040Z,8.70
2018-09-02T21:16:15.156Z,8.40
2018-09-02T21:18:43.229Z,9.13
2018-09-02T21:21:11.314Z,8.40
2018-09-02T21:23:39.367Z,7.77
2018-09-02T21:26:07.429Z,9.60
2018-09-02T21:28:35.487Z,8.80
2018-09-02T21:31:03.543Z,10.93
2018-09-02T21:33:31.619Z,8.87
2018-09-02T21:35:59.755Z,8.80
2018-09-02T21:38:27.898Z,8.27
2018-09-02T21:40:56.042Z,11.10
2018-09-02T21:43:24.088Z,11.67
2018-09-02T21:45:52.185Z,9.40
2018-09-02T21:48:20.277Z,9.57
2018-09-02T21:50:48.478Z,10.37
2018-09-02T21:53:16.539Z,9.03
2018-09-02T21:55:44.582Z,10.67
2018-09-02T21:58:12.655Z,9.87
2018-09-02T22:00:41.671Z,11.30
2018-09-02T22:03:09.939Z,11.87
2018-09-02T22:05:37.972Z,9.70
2018-09-02T22:08:06.071Z,10.50
2018-09-02T22:10:34.241Z,9.60
2018-09-02T22:13:02.300Z,9.30
2018-09-02T22:15:30.371Z,9.93
2018-09-02T22:17:58.487Z,11.70
2018-09-02T22:20:26.638Z,9.77
2018-09-02T22:22:54.703Z,9.20
2018-09-02T22:25:22.823Z,10.53
2018-09-02T22:27:50.863Z,9.17
2018-09-02T22:30:18.934Z,8.90
2018-09-02T22:32:47.079Z,8.83
2018-09-02T22:35:15.160Z,9.47
2018-09-02T22:37:43.260Z,9.70
2018-09-02T22:40:11.698Z,9.70
2018-09-02T22:42:39.754Z,11.03
2018-09-02T22:45:07.802Z,8.93
2018-09-02T22:47:35.836Z,10.07
2018-09-02T22:50:03.927Z,9.37
2018-09-02T22:52:32.016Z,9.27
2018-09-02T22:55:00.172Z,8.83
2018-09-02T22:57:28.218Z,9.37
2018-09-02T22:59:56.294Z,9.77
2018-09-02T23:02:24.355Z,9.23
2018-09-02T23:04:52.446Z,9.33
2018-09-02T23:07:20.530Z,9.50
2018-09-02T23:09:48.590Z,10.07
2018-09-02T23:12:16.684Z,9.00
2018-09-02T23:14:44.798Z,9.53
2018-09-02T23:17:12.834Z,9.47
2018-09-02T23:19:40.867Z,9.60
2018-09-02T23:22:08.931Z,10.50
2018-09-02T23:24:37.042Z,10.07
2018-09-02T23:27:05.318Z,9.63
2018-09-02T23:29:33.363Z,10.43
2018-09-02T23:32:01.743Z,11.27
2018-09-02T23:34:29.775Z,10.10
2018-09-02T23:36:57.900Z,12.27
2018-09-02T23:39:26.043Z,10.67
2018-09-02T23:41:54.111Z,11.80
2018-09-02T23:44:22.212Z,11.10
2018-09-02T23:46:50.259Z,10.80
2018-09-02T23:49:18.293Z,10.33
2018-09-02T23:51:46.400Z,10.37
2018-09-02T23:54:14.414Z,11.53
2018-09-02T23:56:42.547Z,12.10
2018-09-02T23:59:10.588Z,11.40
